createdAt,value
2023-02-24T00:00:53.329Z,27.30
2023-02-24T00:03:23.467Z,35.27
2023-02-24T00:05:54.161Z,40.83
2023-02-24T00:08:22.477Z,47.27
2023-02-24T00:10:50.546Z,33.50
2023-02-24T00:13:22.788Z,35.07
2023-02-24T00:16:07.469Z,36.53
2023-02-24T00:18:36.413Z,41.77
2023-02-24T00:21:11.717Z,42.10
2023-02-24T00:23:40.992Z,55.77
2023-02-24T00:26:12.576Z,57.07
2023-02-24T00:28:40.412Z,46.00
2023-02-24T00:31:18.661Z,50.67
2023-02-24T00:33:47.600Z,49.50
2023-02-24T00:36:26.357Z,45.40
2023-02-24T00:39:00.276Z,39.13
2023-02-24T00:41:31.980Z,37.67
2023-02-24T00:44:07.234Z,34.67
2023-02-24T00:46:45.069Z,34.27
2023-02-24T00:49:21.417Z,32.23
2023-02-24T00:51:49.993Z,31.47
2023-02-24T00:54:19.760Z,30.10
2023-02-24T00:56:52.066Z,29.80
2023-02-24T00:59:22.463Z,29.50
2023-02-24T01:01:51.068Z,25.53
2023-02-24T01:04:25.387Z,28.83
2023-02-24T01:07:03.588Z,25.60
2023-02-24T01:09:32.254Z,26.67
2023-02-24T01:12:20.758Z,27.33
2023-02-24T01:14:52.550Z,27.63
2023-02-24T01:17:24.077Z,27.50
2023-02-24T01:19:55.743Z,27.67
2023-02-24T01:22:26.480Z,26.57
2023-02-24T01:24:54.849Z,26.67
2023-02-24T01:27:23.741Z,26.30
2023-02-24T01:29:55.075Z,26.40
2023-02-24T01:32:26.295Z,25.43
2023-02-24T01:34:56.138Z,24.83
2023-02-24T01:37:24.582Z,25.07
2023-02-24T01:39:53.447Z,25.83
2023-02-24T01:42:23.602Z,26.87
2023-02-24T01:45:00.551Z,25.57
2023-02-24T01:47:41.073Z,26.50
2023-02-24T01:50:16.169Z,26.90
2023-02-24T01:52:48.448Z,27.63
2023-02-24T01:55:33.260Z,26.87
2023-02-24T01:58:07.271Z,27.70
2023-02-24T02:00:46.325Z,29.37
2023-02-24T02:03:27.169Z,32.07
2023-02-24T02:06:02.720Z,31.80
2023-02-24T02:08:32.790Z,31.77
2023-02-24T02:11:09.371Z,33.23
2023-02-24T02:13:45.612Z,33.00
2023-02-24T02:16:49.699Z,32.23
2023-02-24T02:19:55.711Z,32.27
2023-02-24T02:23:01.882Z,34.23
2023-02-24T02:26:07.190Z,32.77
2023-02-24T02:28:54.139Z,33.43
2023-02-24T02:31:30.796Z,33.90
2023-02-24T02:34:38.940Z,33.53
2023-02-24T02:37:18.999Z,32.70
2023-02-24T02:40:23.528Z,32.23
2023-02-24T02:43:33.514Z,33.83
2023-02-24T02:46:04.408Z,34.03
2023-02-24T02:49:24.430Z,35.50
2023-02-24T02:52:13.975Z,31.47
2023-02-24T02:55:12.048Z,24.43
2023-02-24T02:57:54.821Z,36.60
2023-02-24T03:00:30.099Z,33.77
2023-02-24T03:03:10.808Z,26.33
2023-02-24T03:06:10.068Z,27.83
2023-02-24T03:08:51.917Z,23.70
2023-02-24T03:11:27.421Z,24.47
2023-02-24T03:13:59.107Z,25.27
2023-02-24T03:16:29.805Z,24.87
2023-02-24T03:19:06.576Z,23.60
2023-02-24T03:21:54.762Z,18.13
2023-02-24T03:24:25.091Z,15.20
2023-02-24T03:27:07.701Z,17.07
2023-02-24T03:29:45.074Z,18.27
2023-02-24T03:32:46.473Z,17.43
2023-02-24T03:35:22.950Z,19.27
2023-02-24T03:37:56.695Z,18.27
2023-02-24T03:40:36.175Z,20.67
2023-02-24T03:43:32.382Z,20.93
2023-02-24T03:46:03.813Z,22.60
2023-02-24T03:48:41.600Z,22.10
2023-02-24T03:51:19.571Z,22.60
2023-02-24T03:54:41.100Z,24.23
2023-02-24T03:57:24.224Z,21.43
2023-02-24T04:00:27.006Z,23.13
2023-02-24T04:03:21.094Z,24.97
2023-02-24T04:06:22.111Z,20.57
2023-02-24T04:09:19.477Z,20.93
2023-02-24T04:12:17.488Z,19.90
2023-02-24T04:15:05.844Z,20.73
2023-02-24T04:17:39.240Z,20.50
2023-02-24T04:20:17.596Z,19.70
2023-02-24T04:22:52.198Z,19.97
2023-02-24T04:25:27.763Z,21.97
2023-02-24T04:27:59.510Z,20.43
2023-02-24T04:30:38.402Z,21.60
2023-02-24T04:33:08.606Z,35.73
2023-02-24T04:35:42.143Z,26.63
2023-02-24T04:38:10.322Z,36.10
2023-02-24T04:40:42.634Z,42.60
2023-02-24T04:43:13.503Z,45.60
2023-02-24T04:45:42.103Z,46.97
2023-02-24T04:48:16.110Z,49.03
2023-02-24T04:50:46.184Z,49.10
2023-02-24T04:53:17.219Z,48.67
2023-02-24T04:55:51.283Z,50.77
2023-02-24T04:58:31.309Z,51.63
2023-02-24T05:00:59.861Z,49.83
2023-02-24T05:03:36.889Z,52.60
2023-02-24T05:06:08.983Z,55.60
2023-02-24T05:08:39.327Z,55.67
2023-02-24T05:11:09.242Z,56.83
2023-02-24T05:13:41.021Z,57.67
2023-02-24T05:16:21.133Z,42.80
2023-02-24T05:18:52.169Z,47.67
2023-02-24T05:21:37.514Z,52.30
2023-02-24T05:24:11.410Z,52.83
2023-02-24T05:26:44.701Z,51.13
2023-02-24T05:29:13.409Z,55.43
2023-02-24T05:31:40.726Z,57.20
2023-02-24T05:34:10.485Z,52.17
2023-02-24T05:36:44.526Z,54.33
2023-02-24T05:39:24.476Z,51.37
2023-02-24T05:41:57.387Z,51.30
2023-02-24T05:44:37.819Z,42.03
2023-02-24T05:47:06.417Z,49.33
2023-02-24T05:49:38.835Z,41.20
2023-02-24T05:52:11.487Z,48.30
2023-02-24T05:54:46.317Z,48.40
2023-02-24T05:57:21.717Z,45.47
2023-02-24T05:59:58.640Z,44.13
2023-02-24T06:02:38.072Z,40.63
2023-02-24T06:08:09.284Z,37.10
2023-02-24T06:10:38.781Z,34.00
2023-02-24T06:13:09.062Z,42.13
2023-02-24T06:15:40.872Z,44.63
2023-02-24T06:18:11.795Z,42.43
2023-02-24T06:20:39.700Z,31.93
2023-02-24T06:23:11.462Z,42.10
2023-02-24T06:25:43.594Z,39.87
2023-02-24T06:28:14.359Z,38.37
2023-02-24T06:30:42.409Z,35.20
2023-02-24T06:33:14.795Z,33.43
2023-02-24T06:35:44.585Z,31.77
2023-02-24T06:38:20.180Z,32.07
2023-02-24T06:40:53.367Z,30.07
2023-02-24T06:43:24.298Z,31.97
2023-02-24T06:45:57.205Z,31.20
2023-02-24T06:48:28.345Z,29.93
2023-02-24T06:50:57.265Z,30.00
2023-02-24T06:53:27.764Z,28.97
2023-02-24T06:55:56.528Z,30.47
2023-02-24T06:58:24.865Z,30.20
2023-02-24T07:01:05.301Z,29.63
2023-02-24T07:03:42.697Z,29.77
2023-02-24T07:06:26.801Z,30.40
2023-02-24T07:09:00.653Z,27.77
2023-02-24T07:11:29.969Z,29.20
2023-02-24T07:14:00.764Z,27.33
2023-02-24T07:16:42.645Z,29.83
2023-02-24T07:19:15.043Z,28.20
2023-02-24T07:22:00.714Z,27.60
2023-02-24T07:24:33.806Z,26.90
2023-02-24T07:27:07.647Z,27.97
2023-02-24T07:29:37.937Z,28.77
2023-02-24T07:32:09.687Z,25.20
2023-02-24T07:34:42.165Z,27.17
2023-02-24T07:37:13.650Z,29.30
2023-02-24T07:39:51.330Z,26.80
2023-02-24T07:42:30.615Z,27.07
2023-02-24T07:45:08.127Z,24.23
2023-02-24T07:47:41.601Z,21.17
2023-02-24T07:50:15.063Z,21.27
2023-02-24T07:52:49.178Z,26.00
2023-02-24T07:55:17.839Z,24.53
2023-02-24T07:58:00.743Z,25.30
2023-02-24T08:00:30.652Z,24.50
2023-02-24T08:03:01.594Z,23.00
2023-02-24T08:05:30.834Z,20.13
2023-02-24T08:08:08.445Z,19.07
2023-02-24T08:10:39.978Z,18.37
2023-02-24T08:13:19.678Z,14.93
2023-02-24T08:15:57.745Z,17.80
2023-02-24T08:18:28.968Z,17.20
2023-02-24T08:21:08.448Z,16.90
2023-02-24T08:23:44.819Z,18.10
2023-02-24T08:26:15.020Z,17.17
2023-02-24T08:28:49.703Z,18.60
2023-02-24T08:31:19.684Z,17.73
2023-02-24T08:33:56.519Z,16.73
2023-02-24T08:36:26.191Z,17.75
2023-02-24T08:39:00.739Z,19.02
2023-02-24T08:41:47.855Z,17.70
2023-02-24T08:44:24.568Z,18.48
2023-02-24T08:46:57.018Z,19.73
2023-02-24T08:49:25.450Z,18.02
2023-02-24T08:51:56.396Z,14.80
2023-02-24T08:54:35.028Z,16.02
2023-02-24T08:57:26.141Z,15.55
2023-02-24T08:59:59.453Z,17.65
2023-02-24T09:02:30.076Z,17.95
2023-02-24T09:07:54.862Z,16.58
2023-02-24T09:10:31.065Z,17.35
2023-02-24T09:13:01.351Z,19.15
2023-02-24T09:15:41.692Z,20.13
2023-02-24T09:18:16.876Z,20.40
2023-02-24T09:21:19.932Z,20.38
2023-02-24T09:23:49.370Z,20.27
2023-02-24T09:26:24.081Z,20.45
2023-02-24T09:28:59.980Z,18.58
2023-02-24T09:31:42.173Z,19.75
2023-02-24T09:34:18.917Z,18.92
2023-02-24T09:37:01.806Z,18.88
2023-02-24T09:39:54.969Z,18.67
2023-02-24T09:42:30.104Z,18.30
2023-02-24T09:45:13.334Z,19.87
2023-02-24T09:47:57.957Z,17.98
2023-02-24T09:51:04.316Z,20.27
2023-02-24T09:53:55.947Z,19.55
2023-02-24T09:57:12.541Z,19.00
2023-02-24T10:00:24.629Z,15.93
2023-02-24T10:03:45.178Z,15.32
2023-02-24T10:06:38.562Z,15.77
2023-02-24T10:09:48.577Z,14.27
2023-02-24T10:12:34.761Z,15.07
2023-02-24T10:15:57.178Z,14.00
2023-02-24T10:19:02.220Z,12.68
2023-02-24T10:22:06.282Z,15.23
2023-02-24T10:25:11.815Z,12.25
2023-02-24T10:28:09.848Z,12.63
2023-02-24T10:31:15.299Z,11.60
2023-02-24T10:33:46.936Z,12.43
2023-02-24T10:36:20.668Z,11.27
2023-02-24T10:38:56.584Z,10.40
2023-02-24T10:41:33.056Z,13.15
2023-02-24T10:44:05.135Z,13.02
2023-02-24T10:46:41.500Z,12.85
2023-02-24T10:49:19.371Z,12.02
2023-02-24T10:51:54.108Z,11.25
2023-02-24T10:54:47.759Z,12.75
2023-02-24T10:57:22.202Z,12.32
2023-02-24T11:00:16.823Z,13.18
2023-02-24T11:03:10.457Z,12.68
2023-02-24T11:06:19.776Z,12.70
2023-02-24T11:09:10.431Z,12.00
2023-02-24T11:11:58.823Z,13.50
2023-02-24T11:14:51.209Z,13.00
2023-02-24T11:17:30.106Z,13.60
2023-02-24T11:20:19.343Z,12.10
2023-02-24T11:23:02.482Z,11.03
2023-02-24T11:25:44.651Z,12.00
2023-02-24T11:28:35.470Z,11.03
2023-02-24T11:31:48.545Z,11.30
2023-02-24T11:34:57.128Z,12.20
2023-02-24T11:37:43.922Z,11.50
2023-02-24T11:40:38.565Z,11.30
2023-02-24T11:43:29.104Z,11.97
2023-02-24T11:46:17.325Z,12.67
2023-02-24T11:48:57.736Z,13.53
2023-02-24T11:51:37.649Z,11.23
2023-02-24T11:54:13.656Z,11.13
2023-02-24T11:56:52.018Z,12.33
2023-02-24T11:59:46.266Z,9.37
2023-02-24T12:02:50.591Z,12.40
2023-02-24T12:05:40.622Z,12.17
2023-02-24T12:08:30.274Z,11.33
2023-02-24T12:11:12.780Z,12.90
2023-02-24T12:13:52.909Z,10.43
2023-02-24T12:16:40.138Z,9.60
2023-02-24T12:19:50.105Z,12.10
2023-02-24T12:22:21.279Z,11.70
2023-02-24T12:24:55.058Z,10.37
2023-02-24T12:27:43.068Z,11.37
2023-02-24T12:30:38.780Z,12.63
2023-02-24T12:33:52.813Z,11.73
2023-02-24T12:36:55.844Z,10.37
2023-02-24T12:40:04.604Z,11.87
2023-02-24T12:43:19.112Z,12.37
2023-02-24T12:46:15.020Z,10.63
2023-02-24T12:48:47.833Z,12.80
2023-02-24T12:51:47.695Z,9.97
2023-02-24T12:55:06.351Z,10.10
2023-02-24T12:57:49.710Z,12.10
2023-02-24T13:00:33.610Z,11.67
2023-02-24T13:03:33.099Z,13.20
2023-02-24T13:06:23.364Z,11.83
2023-02-24T13:09:21.262Z,10.27
2023-02-24T13:12:27.817Z,11.07
2023-02-24T13:14:56.354Z,10.93
2023-02-24T13:17:27.838Z,10.63
2023-02-24T13:20:11.313Z,11.17
2023-02-24T13:22:44.037Z,10.73
2023-02-24T13:25:34.241Z,10.57
2023-02-24T13:28:08.338Z,11.57
2023-02-24T13:30:47.554Z,11.03
2023-02-24T13:33:32.747Z,11.70
2023-02-24T13:36:27.539Z,10.83
2023-02-24T13:39:39.146Z,12.30
2023-02-24T13:42:33.646Z,12.07
2023-02-24T13:45:24.386Z,11.60
2023-02-24T13:48:12.995Z,9.63
2023-02-24T13:51:15.888Z,11.70
2023-02-24T13:54:00.680Z,9.00
2023-02-24T13:56:55.260Z,11.27
2023-02-24T14:00:01.734Z,10.10
2023-02-24T14:02:38.929Z,11.30
2023-02-24T14:05:32.804Z,11.07
2023-02-24T14:08:03.268Z,11.17
2023-02-24T14:10:34.838Z,10.07
2023-02-24T14:13:17.059Z,10.97
2023-02-24T14:15:47.904Z,11.37
2023-02-24T14:18:26.595Z,9.17
2023-02-24T14:20:57.753Z,6.63
2023-02-24T14:23:32.851Z,10.40
2023-02-24T14:26:07.127Z,10.27
2023-02-24T14:28:40.303Z,8.70
2023-02-24T14:31:16.612Z,10.03
2023-02-24T14:33:55.375Z,10.03
2023-02-24T14:36:27.860Z,9.57
2023-02-24T14:39:19.736Z,6.90
2023-02-24T14:42:08.178Z,8.87
2023-02-24T14:44:51.774Z,9.53
2023-02-24T14:47:33.698Z,8.00
2023-02-24T14:50:09.034Z,8.43
2023-02-24T14:52:51.830Z,7.90
2023-02-24T14:55:40.850Z,8.30
2023-02-24T14:58:39.368Z,8.13
2023-02-24T15:01:26.619Z,8.00
2023-02-24T15:04:21.933Z,9.17
2023-02-24T15:06:49.589Z,10.83
2023-02-24T15:09:32.899Z,9.20
2023-02-24T15:12:14.347Z,9.60
2023-02-24T15:14:49.703Z,9.40
2023-02-24T15:17:21.629Z,9.70
2023-02-24T15:19:55.563Z,9.70
2023-02-24T15:22:56.718Z,9.60
2023-02-24T15:25:48.447Z,9.47
2023-02-24T15:28:33.675Z,8.57
2023-02-24T15:31:09.778Z,10.10
2023-02-24T15:33:43.665Z,10.47
2023-02-24T15:36:23.843Z,10.63
2023-02-24T15:39:03.478Z,9.77
2023-02-24T15:41:45.804Z,9.87
2023-02-24T15:45:03.873Z,10.33
2023-02-24T15:47:47.567Z,9.33
2023-02-24T15:50:18.095Z,11.03
2023-02-24T15:52:54.985Z,11.07
2023-02-24T15:55:22.745Z,11.03
2023-02-24T15:58:03.126Z,10.57
2023-02-24T16:00:32.643Z,11.27
2023-02-24T16:03:07.868Z,11.37
2023-02-24T16:05:36.599Z,10.87
2023-02-24T16:08:05.637Z,11.33
2023-02-24T16:10:34.680Z,10.87
2023-02-24T16:13:05.429Z,10.63
2023-02-24T16:15:39.462Z,10.40
2023-02-24T16:18:22.096Z,11.00
2023-02-24T16:20:58.059Z,11.37
2023-02-24T16:23:29.188Z,11.17
2023-02-24T16:25:59.211Z,11.17
2023-02-24T16:28:31.674Z,10.97
2023-02-24T16:30:59.092Z,11.00
2023-02-24T16:33:29.328Z,11.13
2023-02-24T16:36:05.607Z,11.20
2023-02-24T16:38:34.328Z,11.20
2023-02-24T16:41:11.369Z,11.43
2023-02-24T16:43:42.323Z,9.53
2023-02-24T16:46:18.016Z,10.97
2023-02-24T16:48:49.147Z,11.33
2023-02-24T16:51:17.441Z,11.33
2023-02-24T16:53:55.193Z,12.40
2023-02-24T16:56:22.656Z,11.40
2023-02-24T16:58:53.250Z,11.63
2023-02-24T17:01:23.012Z,11.43
2023-02-24T17:03:55.866Z,11.07
2023-02-24T17:06:30.676Z,11.77
2023-02-24T17:08:59.353Z,11.43
2023-02-24T17:11:35.917Z,11.87
2023-02-24T17:14:05.589Z,12.03
2023-02-24T17:16:32.851Z,11.60
2023-02-24T17:19:02.725Z,10.73
2023-02-24T17:21:31.294Z,11.90
2023-02-24T17:24:01.320Z,11.83
2023-02-24T17:26:31.652Z,11.10
2023-02-24T17:29:02.362Z,12.50
2023-02-24T17:31:31.913Z,11.50
2023-02-24T17:34:09.845Z,11.00
2023-02-24T17:36:38.547Z,11.57
2023-02-24T17:39:07.579Z,12.67
2023-02-24T17:41:34.917Z,11.43
2023-02-24T17:44:05.658Z,12.57
2023-02-24T17:46:43.523Z,11.67
2023-02-24T17:49:12.260Z,11.63
2023-02-24T17:51:41.814Z,11.00
2023-02-24T17:54:19.489Z,15.40
2023-02-24T17:56:49.345Z,13.37
2023-02-24T17:59:18.364Z,10.90
2023-02-24T18:01:49.392Z,13.53
2023-02-24T18:04:21.339Z,13.07
2023-02-24T18:06:51.333Z,12.50
2023-02-24T18:09:27.533Z,12.30
2023-02-24T18:11:58.567Z,12.10
2023-02-24T18:14:28.781Z,13.83
2023-02-24T18:16:57.149Z,14.37
2023-02-24T18:19:26.654Z,12.43
2023-02-24T18:21:54.841Z,13.27
2023-02-24T18:24:28.595Z,12.30
2023-02-24T18:26:58.845Z,12.03
2023-02-24T18:29:28.819Z,12.50
2023-02-24T18:31:59.756Z,12.23
2023-02-24T18:34:36.072Z,12.83
2023-02-24T18:37:04.497Z,13.20
2023-02-24T18:39:34.466Z,14.20
2023-02-24T18:42:02.800Z,14.33
2023-02-24T18:44:39.175Z,11.87
2023-02-24T18:47:10.419Z,12.00
2023-02-24T18:49:38.332Z,11.27
2023-02-24T18:52:08.519Z,11.80
2023-02-24T18:54:36.014Z,11.27
2023-02-24T18:57:05.849Z,12.03
2023-02-24T18:59:34.985Z,12.20
2023-02-24T19:02:10.779Z,12.73
2023-02-24T19:04:47.398Z,9.67
2023-02-24T19:07:19.062Z,9.53
2023-02-24T19:09:59.680Z,10.03
2023-02-24T19:12:29.659Z,10.30
2023-02-24T19:14:56.906Z,13.37
2023-02-24T19:17:24.103Z,14.63
2023-02-24T19:19:51.324Z,12.37
2023-02-24T19:22:19.741Z,12.93
2023-02-24T19:24:55.729Z,15.47
2023-02-24T19:27:22.812Z,11.93
2023-02-24T19:29:54.465Z,12.47
2023-02-24T19:32:25.102Z,12.30
2023-02-24T19:35:02.221Z,15.03
2023-02-24T19:37:30.722Z,11.70
2023-02-24T19:39:57.763Z,13.30
2023-02-24T19:42:27.810Z,12.20
2023-02-24T19:44:57.717Z,13.63
2023-02-24T19:47:29.534Z,11.20
2023-02-24T19:49:59.317Z,15.57
2023-02-24T19:52:31.507Z,13.60
2023-02-24T19:55:00.107Z,14.43
2023-02-24T19:57:33.877Z,16.57
2023-02-24T20:00:01.274Z,15.80
2023-02-24T20:02:31.447Z,15.27
2023-02-24T20:07:46.468Z,14.37
2023-02-24T20:10:17.505Z,15.67
2023-02-24T20:12:45.022Z,15.73
2023-02-24T20:15:16.844Z,15.97
2023-02-24T20:17:49.475Z,15.70
2023-02-24T20:20:18.738Z,15.70
2023-02-24T20:22:47.558Z,14.63
2023-02-24T20:25:25.486Z,15.83
2023-02-24T20:27:54.013Z,13.03
2023-02-24T20:30:22.672Z,13.70
2023-02-24T20:32:56.409Z,12.77
2023-02-24T20:35:28.940Z,13.77
2023-02-24T20:37:58.081Z,13.63
2023-02-24T20:40:34.518Z,9.27
2023-02-24T20:43:07.277Z,9.90
2023-02-24T20:45:47.806Z,11.03
2023-02-24T20:48:18.803Z,18.50
2023-02-24T20:50:48.376Z,15.67
2023-02-24T20:53:19.138Z,22.73
2023-02-24T20:55:49.904Z,20.30
2023-02-24T20:58:18.242Z,16.03
2023-02-24T21:00:46.952Z,15.93
2023-02-24T21:03:34.228Z,16.27
2023-02-24T21:06:09.964Z,21.37
2023-02-24T21:08:41.227Z,18.90
2023-02-24T21:11:11.117Z,13.83
2023-02-24T21:13:47.979Z,16.60
2023-02-24T21:16:18.238Z,14.20
2023-02-24T21:18:48.812Z,16.33
2023-02-24T21:21:22.564Z,14.63
2023-02-24T21:23:51.173Z,17.03
2023-02-24T21:26:19.446Z,14.60
2023-02-24T21:28:50.471Z,16.50
2023-02-24T21:31:22.078Z,18.17
2023-02-24T21:33:56.908Z,15.00
2023-02-24T21:36:29.764Z,17.10
2023-02-24T21:38:58.032Z,16.27
2023-02-24T21:41:28.134Z,16.00
2023-02-24T21:43:59.317Z,15.00
2023-02-24T21:46:31.349Z,14.27
2023-02-24T21:49:18.736Z,15.00
2023-02-24T21:51:51.662Z,13.83
2023-02-24T21:54:20.510Z,15.67
2023-02-24T21:56:47.527Z,14.87
2023-02-24T21:59:20.330Z,15.50
2023-02-24T22:01:47.825Z,16.83
2023-02-24T22:04:22.129Z,15.60
2023-02-24T22:10:30.071Z,15.37
2023-02-24T22:12:59.605Z,13.37
2023-02-24T22:15:29.329Z,15.33
2023-02-24T22:17:56.377Z,12.27
2023-02-24T22:20:25.149Z,16.73
2023-02-24T22:22:54.021Z,16.07
2023-02-24T22:25:22.367Z,17.20
2023-02-24T22:27:51.130Z,18.37
2023-02-24T22:30:18.707Z,13.50
2023-02-24T22:32:46.132Z,16.33
2023-02-24T22:35:14.829Z,18.83
2023-02-24T22:37:45.128Z,16.93
2023-02-24T22:40:21.212Z,16.83
2023-02-24T22:42:49.753Z,18.37
2023-02-24T22:45:20.536Z,14.40
2023-02-24T22:47:50.632Z,15.20
2023-02-24T22:50:18.741Z,15.80
2023-02-24T22:52:47.149Z,15.47
2023-02-24T22:55:15.935Z,13.23
